createdAt,value
2022-07-29T00:00:18.114Z,0.00
2022-07-29T00:01:19.706Z,0.00
2022-07-29T00:02:18.598Z,1.00
2022-07-29T00:03:19.002Z,0.00
2022-07-29T00:04:19.820Z,0.00
2022-07-29T00:05:19.528Z,0.00
2022-07-29T00:06:19.750Z,0.00
2022-07-29T00:07:20.005Z,0.00
2022-07-29T00:08:20.288Z,0.00
2022-07-29T00:09:20.539Z,0.00
2022-07-29T00:10:20.841Z,0.00
2022-07-29T00:11:21.044Z,0.00
2022-07-29T00:12:26.214Z,0.00
2022-07-29T00:13:32.285Z,1.00
2022-07-29T00:14:22.959Z,0.00
2022-07-29T00:15:22.256Z,0.00
2022-07-29T00:16:22.800Z,0.00
2022-07-29T00:17:22.876Z,0.00
2022-07-29T00:18:23.175Z,0.00
2022-07-29T00:19:23.391Z,0.00
2022-07-29T00:20:23.628Z,0.00
2022-07-29T00:21:23.915Z,0.00
2022-07-29T00:22:24.147Z,0.00
2022-07-29T00:23:24.424Z,0.00
2022-07-29T00:24:24.646Z,0.00
2022-07-29T00:25:25.008Z,0.00
2022-07-29T00:26:25.386Z,0.00
2022-07-29T00:27:25.565Z,0.00
2022-07-29T00:28:25.793Z,0.00
2022-07-29T00:29:34.640Z,0.00
2022-07-29T00:30:27.395Z,0.00
2022-07-29T00:31:26.716Z,0.00
2022-07-29T00:32:26.994Z,0.00
2022-07-29T00:33:27.260Z,0.00
2022-07-29T00:34:27.510Z,0.00
2022-07-29T00:35:27.749Z,0.00
2022-07-29T00:36:27.978Z,0.00
2022-07-29T00:37:28.270Z,0.00
2022-07-29T00:38:28.538Z,1.00
2022-07-29T00:39:28.768Z,1.00
2022-07-29T00:40:29.045Z,0.00
2022-07-29T00:41:29.289Z,0.00
2022-07-29T00:42:29.538Z,0.00
2022-07-29T00:43:29.846Z,0.00
2022-07-29T00:44:30.114Z,0.00
2022-07-29T00:45:30.434Z,0.00
2022-07-29T00:46:30.740Z,0.00
2022-07-29T00:47:31.013Z,0.00
2022-07-29T00:48:31.278Z,0.00
2022-07-29T00:49:31.578Z,0.00
2022-07-29T00:50:31.786Z,0.00
2022-07-29T00:51:32.178Z,0.00
2022-07-29T00:52:32.433Z,0.00
2022-07-29T00:53:32.687Z,0.00
2022-07-29T00:54:32.900Z,0.00
2022-07-29T00:55:33.129Z,1.00
2022-07-29T00:56:33.467Z,0.00
2022-07-29T00:57:33.728Z,0.00
2022-07-29T00:58:34.006Z,0.00
2022-07-29T00:59:35.258Z,0.00
2022-07-29T01:00:34.556Z,1.00
2022-07-29T01:01:34.961Z,0.00
2022-07-29T01:02:35.139Z,0.00
2022-07-29T01:03:35.403Z,0.00
2022-07-29T01:04:35.752Z,0.00
2022-07-29T01:05:48.528Z,0.00
2022-07-29T01:06:37.355Z,0.00
2022-07-29T01:07:36.748Z,0.00
2022-07-29T01:08:37.056Z,0.00
2022-07-29T01:09:46.192Z,1.00
2022-07-29T01:10:38.626Z,0.00
2022-07-29T01:11:37.870Z,0.00
2022-07-29T01:12:38.214Z,0.00
2022-07-29T01:13:38.443Z,0.00
2022-07-29T01:14:38.739Z,0.00
2022-07-29T01:15:39.037Z,0.00
2022-07-29T01:16:40.456Z,0.00
2022-07-29T01:17:39.598Z,0.00
2022-07-29T01:18:40.892Z,0.00
2022-07-29T01:19:40.157Z,0.00
2022-07-29T01:20:40.517Z,0.00
2022-07-29T01:21:40.839Z,0.00
2022-07-29T01:22:41.108Z,0.00
2022-07-29T01:23:41.574Z,0.00
2022-07-29T01:24:42.328Z,1.00
2022-07-29T01:25:41.994Z,0.00
2022-07-29T01:26:42.321Z,0.00
2022-07-29T01:27:43.042Z,0.00
2022-07-29T01:28:42.833Z,0.00
2022-07-29T01:29:43.107Z,0.00
2022-07-29T01:30:43.319Z,0.00
2022-07-29T01:31:49.152Z,0.00
2022-07-29T01:32:45.355Z,0.00
2022-07-29T01:33:44.150Z,0.00
2022-07-29T01:34:44.434Z,0.00
2022-07-29T01:35:44.715Z,0.00
2022-07-29T01:36:45.014Z,0.00
2022-07-29T01:37:45.261Z,0.00
2022-07-29T01:38:45.497Z,1.00
2022-07-29T01:39:45.853Z,0.00
2022-07-29T01:40:46.077Z,0.00
2022-07-29T01:41:46.398Z,0.00
2022-07-29T01:42:46.747Z,0.00
2022-07-29T01:43:47.141Z,0.00
2022-07-29T01:44:47.369Z,0.00
2022-07-29T01:45:48.295Z,0.00
2022-07-29T01:46:48.030Z,0.00
2022-07-29T01:47:48.181Z,0.00
2022-07-29T01:48:48.669Z,0.00
2022-07-29T01:49:48.833Z,0.00
2022-07-29T01:50:49.150Z,0.00
2022-07-29T01:51:49.440Z,0.00
2022-07-29T01:52:49.649Z,0.00
2022-07-29T01:53:49.940Z,0.00
2022-07-29T01:54:50.170Z,0.00
2022-07-29T01:55:50.595Z,0.00
2022-07-29T01:56:50.839Z,0.00
2022-07-29T01:57:51.287Z,0.00
2022-07-29T01:58:51.428Z,0.00
2022-07-29T01:59:51.845Z,0.00
2022-07-29T02:00:52.168Z,0.00
2022-07-29T02:01:54.517Z,0.00
2022-07-29T02:02:52.666Z,0.00
2022-07-29T02:03:53.025Z,0.00
2022-07-29T02:04:53.300Z,0.00
2022-07-29T02:05:53.531Z,0.00
2022-07-29T02:06:53.798Z,0.00
2022-07-29T02:07:54.001Z,0.00
2022-07-29T02:08:54.283Z,0.00
2022-07-29T02:09:54.530Z,0.00
2022-07-29T02:10:54.776Z,0.00
2022-07-29T02:11:55.083Z,0.00
2022-07-29T02:12:55.435Z,0.00
2022-07-29T02:13:55.717Z,0.00
2022-07-29T02:14:56.100Z,0.00
2022-07-29T02:15:56.454Z,0.00
2022-07-29T02:16:56.801Z,0.00
2022-07-29T02:17:57.054Z,0.00
2022-07-29T02:18:57.430Z,0.00
2022-07-29T02:19:57.670Z,1.00
2022-07-29T02:20:57.883Z,0.00
2022-07-29T02:21:58.110Z,1.00
2022-07-29T02:22:58.410Z,0.00
2022-07-29T02:23:58.719Z,0.00
2022-07-29T02:24:58.998Z,0.00
2022-07-29T02:25:59.322Z,0.00
2022-07-29T02:26:59.551Z,0.00
2022-07-29T02:27:59.792Z,0.00
2022-07-29T02:29:00.963Z,0.00
2022-07-29T02:30:00.477Z,0.00
2022-07-29T02:31:00.856Z,0.00
2022-07-29T02:32:00.958Z,0.00
2022-07-29T02:33:01.224Z,1.00
2022-07-29T02:34:01.560Z,0.00
2022-07-29T02:35:01.746Z,1.00
2022-07-29T02:36:02.065Z,0.00
2022-07-29T02:37:02.372Z,0.00
2022-07-29T02:38:02.707Z,0.00
2022-07-29T02:39:02.919Z,0.00
2022-07-29T02:40:03.218Z,1.00
2022-07-29T02:41:03.571Z,0.00
2022-07-29T02:42:03.850Z,0.00
2022-07-29T02:43:04.154Z,0.00
2022-07-29T02:44:04.382Z,1.00
2022-07-29T02:45:04.754Z,0.00
2022-07-29T02:46:05.087Z,0.00
2022-07-29T02:47:06.350Z,0.00
2022-07-29T02:48:05.627Z,0.00
2022-07-29T02:49:05.912Z,0.00
2022-07-29T02:50:06.260Z,0.00
2022-07-29T02:51:06.479Z,1.00
2022-07-29T02:52:06.796Z,0.00
2022-07-29T02:53:07.113Z,0.00
2022-07-29T02:54:08.151Z,0.00
2022-07-29T02:55:07.729Z,0.00
2022-07-29T02:56:07.917Z,0.00
2022-07-29T02:57:08.234Z,0.00
2022-07-29T02:58:08.435Z,0.00
2022-07-29T02:59:08.787Z,0.00
2022-07-29T03:00:09.032Z,0.00
2022-07-29T03:01:09.321Z,0.00
2022-07-29T03:02:09.626Z,0.00
2022-07-29T03:03:09.929Z,0.00
2022-07-29T03:04:10.254Z,0.00
2022-07-29T03:05:10.629Z,0.00
2022-07-29T03:06:10.842Z,0.00
2022-07-29T03:07:12.148Z,0.00
2022-07-29T03:08:11.469Z,0.00
2022-07-29T03:09:13.582Z,0.00
2022-07-29T03:10:13.741Z,0.00
2022-07-29T03:11:12.305Z,0.00
2022-07-29T03:12:12.637Z,0.00
2022-07-29T03:13:12.981Z,0.00
2022-07-29T03:14:13.639Z,0.00
2022-07-29T03:15:13.566Z,0.00
2022-07-29T03:16:13.801Z,0.00
2022-07-29T03:17:14.127Z,0.00
2022-07-29T03:18:14.407Z,0.00
2022-07-29T03:19:14.648Z,1.00
2022-07-29T03:20:14.987Z,1.00
2022-07-29T03:21:15.356Z,1.00
2022-07-29T03:22:15.699Z,1.00
2022-07-29T03:23:15.912Z,1.00
2022-07-29T03:24:16.561Z,1.00
2022-07-29T03:25:16.406Z,2.00
2022-07-29T03:26:16.808Z,0.00
2022-07-29T03:27:17.114Z,0.00
2022-07-29T03:28:18.264Z,2.00
2022-07-29T03:29:17.641Z,2.00
2022-07-29T03:30:18.299Z,1.00
2022-07-29T03:31:18.351Z,3.00
2022-07-29T03:32:23.770Z,2.00
2022-07-29T03:33:19.910Z,4.00
2022-07-29T03:34:19.294Z,3.00
2022-07-29T03:35:19.459Z,5.00
2022-07-29T03:36:19.681Z,8.00
2022-07-29T03:37:19.897Z,8.00
2022-07-29T03:38:20.276Z,7.00
2022-07-29T03:39:20.581Z,10.00
2022-07-29T03:40:21.813Z,9.00
2022-07-29T03:41:22.523Z,4.00
2022-07-29T03:42:21.590Z,12.00
2022-07-29T03:43:21.797Z,13.00
2022-07-29T03:44:22.172Z,15.00
2022-07-29T03:45:22.309Z,15.00
2022-07-29T03:46:22.585Z,20.00
2022-07-29T03:47:22.837Z,16.00
2022-07-29T03:48:23.186Z,23.00
2022-07-29T03:49:23.555Z,28.00
2022-07-29T03:50:23.754Z,29.00
2022-07-29T03:51:33.897Z,31.00
2022-07-29T03:52:25.241Z,34.00
2022-07-29T03:53:24.575Z,40.00
2022-07-29T03:54:24.800Z,49.00
2022-07-29T03:55:25.147Z,48.00
2022-07-29T03:56:25.366Z,52.00
2022-07-29T03:57:25.762Z,58.00
2022-07-29T03:58:25.895Z,61.00
2022-07-29T03:59:26.158Z,68.00
2022-07-29T04:00:26.421Z,71.00
2022-07-29T04:01:26.737Z,72.00
2022-07-29T04:02:30.555Z,81.00
2022-07-29T04:03:27.301Z,87.00
2022-07-29T04:04:27.553Z,93.00
2022-07-29T04:05:27.800Z,96.00
2022-07-29T04:06:28.085Z,106.00
2022-07-29T04:07:28.344Z,108.00
2022-07-29T04:08:28.609Z,119.00
2022-07-29T04:09:28.870Z,121.00
2022-07-29T04:10:30.342Z,129.00
2022-07-29T04:11:29.467Z,133.00
2022-07-29T04:12:29.736Z,141.00
2022-07-29T04:13:29.982Z,144.00
2022-07-29T04:14:30.247Z,152.00
2022-07-29T04:15:31.230Z,156.00
2022-07-29T04:16:30.861Z,165.00
2022-07-29T04:17:31.172Z,171.00
2022-07-29T04:18:31.406Z,178.00
2022-07-29T04:19:31.708Z,185.00
2022-07-29T04:20:31.927Z,195.00
2022-07-29T04:21:32.171Z,202.00
2022-07-29T04:22:32.444Z,205.00
2022-07-29T04:23:32.725Z,213.00
2022-07-29T04:24:33.012Z,226.00
2022-07-29T04:25:33.325Z,232.00
2022-07-29T04:26:33.636Z,237.00
2022-07-29T04:27:33.906Z,242.00
2022-07-29T04:28:34.174Z,248.00
2022-07-29T04:29:34.439Z,259.00
2022-07-29T04:30:34.710Z,261.00
2022-07-29T04:31:35.132Z,273.00
2022-07-29T04:32:35.263Z,278.00
2022-07-29T04:33:35.544Z,289.00
2022-07-29T04:34:35.808Z,298.00
2022-07-29T04:35:38.401Z,307.00
2022-07-29T04:36:36.318Z,313.00
2022-07-29T04:37:36.593Z,319.00
2022-07-29T04:38:36.847Z,329.00
2022-07-29T04:39:37.164Z,341.00
2022-07-29T04:40:38.643Z,341.00
2022-07-29T04:41:37.712Z,344.00
2022-07-29T04:42:46.204Z,358.00
2022-07-29T04:43:39.221Z,362.00
2022-07-29T04:44:39.644Z,377.00
2022-07-29T04:45:38.860Z,378.00
2022-07-29T04:46:39.293Z,385.00
2022-07-29T04:47:39.535Z,395.00
2022-07-29T04:48:39.788Z,405.00
2022-07-29T04:49:40.040Z,413.00
2022-07-29T04:50:40.271Z,420.00
2022-07-29T04:51:40.506Z,434.00
2022-07-29T04:52:40.871Z,434.00
2022-07-29T04:53:41.123Z,440.00
2022-07-29T04:54:41.369Z,448.00
2022-07-29T04:55:41.656Z,454.00
2022-07-29T04:56:41.897Z,463.00
2022-07-29T04:57:42.168Z,471.00
2022-07-29T04:58:42.487Z,480.00
2022-07-29T04:59:42.825Z,489.00
2022-07-29T05:00:43.070Z,499.00
2022-07-29T05:01:43.423Z,501.00
2022-07-29T05:02:43.795Z,504.00
2022-07-29T05:03:43.984Z,514.00
2022-07-29T05:04:44.201Z,521.00
2022-07-29T05:05:44.522Z,532.00
2022-07-29T05:06:44.724Z,535.00
2022-07-29T05:07:45.015Z,541.00
2022-07-29T05:08:45.271Z,343.00
2022-07-29T05:09:45.548Z,562.00
2022-07-29T05:10:45.782Z,564.00
2022-07-29T05:11:46.087Z,576.00
2022-07-29T05:12:46.317Z,583.00
2022-07-29T05:13:47.101Z,588.00
2022-07-29T05:14:47.774Z,597.00
2022-07-29T05:15:47.324Z,602.00
2022-07-29T05:16:47.533Z,614.00
2022-07-29T05:17:47.830Z,621.00
2022-07-29T05:18:48.011Z,625.00
2022-07-29T05:19:48.377Z,640.00
2022-07-29T05:20:48.611Z,642.00
2022-07-29T05:21:48.925Z,648.00
2022-07-29T05:22:50.077Z,658.00
2022-07-29T05:23:49.552Z,665.00
2022-07-29T05:24:49.895Z,671.00
2022-07-29T05:25:50.063Z,677.00
2022-07-29T05:26:50.394Z,678.00
2022-07-29T05:27:50.981Z,675.00
2022-07-29T05:28:50.971Z,676.00
2022-07-29T05:29:51.243Z,681.00
2022-07-29T05:30:51.470Z,689.00
2022-07-29T05:31:51.704Z,694.00
2022-07-29T05:32:51.949Z,694.00
2022-07-29T05:33:52.267Z,705.00
2022-07-29T05:34:52.518Z,709.00
2022-07-29T05:35:55.285Z,709.00
2022-07-29T05:36:53.027Z,717.00
2022-07-29T05:37:53.373Z,726.00
2022-07-29T05:38:53.734Z,728.00
2022-07-29T05:39:57.221Z,733.00
2022-07-29T05:40:55.188Z,742.00
2022-07-29T05:41:54.515Z,746.00
2022-07-29T05:42:54.871Z,754.00
2022-07-29T05:43:54.953Z,757.00
2022-07-29T05:44:55.530Z,759.00
2022-07-29T05:45:55.482Z,760.00
2022-07-29T05:46:55.758Z,779.00
2022-07-29T05:47:56.061Z,778.00
2022-07-29T05:48:56.373Z,781.00
2022-07-29T05:49:56.546Z,795.00
2022-07-29T05:50:56.848Z,809.00
2022-07-29T05:51:57.175Z,819.00
2022-07-29T05:52:57.477Z,841.00
2022-07-29T05:53:57.656Z,844.00
2022-07-29T05:54:57.913Z,852.00
2022-07-29T05:55:58.153Z,864.00
2022-07-29T05:56:58.402Z,867.00
2022-07-29T05:57:58.681Z,885.00
2022-07-29T05:58:58.901Z,905.00
2022-07-29T05:59:59.319Z,911.00
2022-07-29T06:00:59.610Z,947.00
2022-07-29T06:02:00.372Z,961.00
2022-07-29T06:03:00.101Z,971.00
2022-07-29T06:04:00.374Z,970.00
2022-07-29T06:05:00.632Z,980.00
2022-07-29T06:06:00.936Z,992.00
2022-07-29T06:07:01.161Z,980.00
2022-07-29T06:08:01.483Z,989.00
2022-07-29T06:09:01.777Z,999.00
2022-07-29T06:10:02.981Z,1068.00
2022-07-29T06:11:02.223Z,1067.00
2022-07-29T06:12:02.502Z,1026.00
2022-07-29T06:13:02.787Z,978.00
2022-07-29T06:14:03.010Z,987.00
2022-07-29T06:15:03.287Z,959.00
2022-07-29T06:16:03.562Z,998.00
2022-07-29T06:17:03.844Z,1077.00
2022-07-29T06:18:04.080Z,1054.00
2022-07-29T06:19:04.377Z,1038.00
2022-07-29T06:20:07.444Z,1165.00
2022-07-29T06:21:04.960Z,1258.00
2022-07-29T06:22:05.310Z,1167.00
2022-07-29T06:23:05.527Z,1193.00
2022-07-29T06:24:05.779Z,1201.00
2022-07-29T06:25:06.131Z,1283.00
2022-07-29T06:26:06.367Z,1327.00
2022-07-29T06:27:06.640Z,1350.00
2022-07-29T06:28:06.896Z,1305.00
2022-07-29T06:29:07.145Z,1420.00
2022-07-29T06:30:07.402Z,1327.00
2022-07-29T06:31:07.779Z,1381.00
2022-07-29T06:32:08.089Z,1531.00
2022-07-29T06:33:08.328Z,1464.00
2022-07-29T06:34:08.642Z,1484.00
2022-07-29T06:35:39.148Z,1450.00
2022-07-29T06:36:10.278Z,1509.00
2022-07-29T06:37:11.247Z,1426.00
2022-07-29T06:38:31.557Z,1473.00
2022-07-29T06:39:12.186Z,1558.00
2022-07-29T06:40:10.359Z,1469.00
2022-07-29T06:41:11.912Z,1662.00
2022-07-29T06:42:10.908Z,1324.00
2022-07-29T06:43:11.286Z,1487.00
2022-07-29T06:44:12.642Z,1445.00
2022-07-29T06:45:11.753Z,1646.00
2022-07-29T06:46:12.605Z,1532.00
2022-07-29T06:47:12.466Z,1502.00
2022-07-29T06:48:12.574Z,1327.00
2022-07-29T06:49:12.891Z,1310.00
2022-07-29T06:50:13.074Z,1618.00
2022-07-29T06:51:13.315Z,1431.00
2022-07-29T06:52:13.557Z,1449.00
2022-07-29T06:53:13.834Z,1376.00
2022-07-29T06:54:14.213Z,1445.00
2022-07-29T06:55:24.808Z,1509.00
2022-07-29T06:56:15.651Z,1540.00
2022-07-29T06:57:14.927Z,1580.00
2022-07-29T06:58:15.154Z,944.00
2022-07-29T06:59:15.442Z,409.00
2022-07-29T07:00:15.866Z,1940.00
2022-07-29T07:01:16.044Z,1871.00
2022-07-29T07:02:16.308Z,1946.00
2022-07-29T07:03:16.572Z,2045.00
2022-07-29T07:04:17.157Z,2063.00
2022-07-29T07:05:17.161Z,1990.00
2022-07-29T07:06:17.411Z,2074.00
2022-07-29T07:07:17.654Z,2200.00
2022-07-29T07:08:17.936Z,1748.00
2022-07-29T07:09:18.207Z,1909.00
2022-07-29T07:10:18.502Z,1890.00
2022-07-29T07:11:19.051Z,1936.00
2022-07-29T07:12:18.977Z,1705.00
2022-07-29T07:13:19.219Z,1499.00
2022-07-29T07:14:19.989Z,1708.00
2022-07-29T07:15:19.739Z,1575.00
2022-07-29T07:16:20.134Z,1728.00
2022-07-29T07:17:20.449Z,1365.00
2022-07-29T07:18:20.580Z,1454.00
2022-07-29T07:19:20.832Z,1544.00
2022-07-29T07:20:21.131Z,1519.00
2022-07-29T07:21:21.506Z,1802.00
2022-07-29T07:22:21.621Z,1849.00
2022-07-29T07:23:21.888Z,1924.00
2022-07-29T07:24:22.162Z,2095.00
2022-07-29T07:25:22.385Z,2211.00
2022-07-29T07:26:22.802Z,2559.00
2022-07-29T07:27:23.123Z,2307.00
2022-07-29T07:28:24.875Z,2342.00
2022-07-29T07:29:23.591Z,2572.00
2022-07-29T07:30:23.908Z,2499.00
2022-07-29T07:31:24.196Z,2542.00
2022-07-29T07:32:24.482Z,2521.00
2022-07-29T07:33:24.721Z,2529.00
2022-07-29T07:34:29.328Z,2577.00
2022-07-29T07:35:25.342Z,2059.00
2022-07-29T07:36:25.823Z,2324.00
2022-07-29T07:37:25.868Z,2186.00
2022-07-29T07:38:26.176Z,2004.00
2022-07-29T07:39:26.431Z,1833.00
2022-07-29T07:40:26.654Z,1864.00
2022-07-29T07:41:27.011Z,1792.00
2022-07-29T07:42:28.330Z,1638.00
2022-07-29T07:43:28.602Z,1661.00
2022-07-29T07:44:27.907Z,1636.00
2022-07-29T07:45:28.160Z,1667.00
2022-07-29T07:46:28.458Z,1690.00
2022-07-29T07:47:28.729Z,1850.00
2022-07-29T07:48:28.984Z,1810.00
2022-07-29T07:49:29.343Z,1801.00
2022-07-29T07:50:29.603Z,1982.00
2022-07-29T07:51:29.834Z,1907.00
2022-07-29T07:52:30.097Z,1962.00
2022-07-29T07:53:30.342Z,1996.00
2022-07-29T07:54:30.641Z,2260.00
2022-07-29T07:55:47.500Z,2231.00
2022-07-29T07:56:35.278Z,2200.00
2022-07-29T07:57:31.428Z,2130.00
2022-07-29T07:58:31.702Z,1864.00
2022-07-29T07:59:31.989Z,1904.00
2022-07-29T08:00:32.311Z,1858.00
2022-07-29T08:01:48.153Z,1853.00
2022-07-29T08:02:33.792Z,1925.00
2022-07-29T08:03:33.109Z,1985.00
2022-07-29T08:04:33.374Z,2081.00
2022-07-29T08:05:33.605Z,2114.00
2022-07-29T08:06:33.863Z,1970.00
2022-07-29T08:07:34.222Z,1896.00
2022-07-29T08:08:34.468Z,1898.00
2022-07-29T08:09:34.690Z,1939.00
2022-07-29T08:10:34.952Z,1944.00
2022-07-29T08:11:35.307Z,1964.00
2022-07-29T08:12:35.521Z,1924.00
2022-07-29T08:13:35.782Z,2074.00
2022-07-29T08:14:36.098Z,2072.00
2022-07-29T08:15:36.336Z,2039.00
2022-07-29T08:16:36.631Z,2083.00
2022-07-29T08:17:36.896Z,2059.00
2022-07-29T08:18:37.156Z,1925.00
2022-07-29T08:19:37.454Z,1974.00
2022-07-29T08:20:37.700Z,2270.00
2022-07-29T08:21:38.014Z,2127.00
2022-07-29T08:22:38.284Z,2279.00
2022-07-29T08:23:47.272Z,2389.00
2022-07-29T08:24:39.851Z,2076.00
2022-07-29T08:25:40.255Z,2795.00
2022-07-29T08:26:39.453Z,2549.00
2022-07-29T08:27:43.989Z,3722.00
2022-07-29T08:28:40.008Z,3278.00
2022-07-29T08:29:40.272Z,4830.00
2022-07-29T08:30:40.527Z,3663.00
2022-07-29T08:31:40.859Z,2357.00
2022-07-29T08:32:53.701Z,3701.00
2022-07-29T08:33:43.297Z,3727.00
2022-07-29T08:34:41.666Z,2569.00
2022-07-29T08:35:41.973Z,2955.00
2022-07-29T08:36:42.288Z,2091.00
2022-07-29T08:37:42.496Z,4570.00
2022-07-29T08:38:42.813Z,4767.00
2022-07-29T08:39:43.106Z,4782.00
2022-07-29T08:40:43.434Z,3022.00
2022-07-29T08:41:57.288Z,5825.00
2022-07-29T08:42:44.924Z,2184.00
2022-07-29T08:43:44.180Z,3927.00
2022-07-29T08:44:44.491Z,5627.00
2022-07-29T08:45:47.724Z,3247.00
2022-07-29T08:46:44.969Z,5218.00
2022-07-29T08:47:45.255Z,3619.00
2022-07-29T08:48:45.612Z,3641.00
2022-07-29T08:49:45.961Z,2815.00
2022-07-29T08:50:46.515Z,3991.00
2022-07-29T08:51:49.233Z,2938.00
2022-07-29T08:52:47.594Z,3912.00
2022-07-29T08:53:46.857Z,4795.00
2022-07-29T08:54:47.162Z,4204.00
2022-07-29T08:55:47.370Z,6836.00
2022-07-29T08:56:47.644Z,5070.00
2022-07-29T08:57:51.916Z,4272.00
2022-07-29T08:58:51.974Z,4316.00
2022-07-29T08:59:48.436Z,3155.00
2022-07-29T09:00:48.723Z,3169.00
2022-07-29T09:01:49.085Z,2569.00
2022-07-29T09:02:49.269Z,2818.00
2022-07-29T09:03:49.649Z,2328.00
2022-07-29T09:04:49.752Z,2590.00
2022-07-29T09:05:50.050Z,2478.00
2022-07-29T09:06:50.264Z,2628.00
2022-07-29T09:07:50.604Z,2616.00
2022-07-29T09:08:50.815Z,2162.00
2022-07-29T09:09:51.044Z,3912.00
2022-07-29T09:10:51.372Z,4290.00
2022-07-29T09:11:52.118Z,4525.00
2022-07-29T09:12:51.872Z,3495.00
2022-07-29T09:13:52.164Z,4027.00
2022-07-29T09:14:52.386Z,3056.00
2022-07-29T09:15:52.702Z,5353.00
2022-07-29T09:16:53.982Z,5573.00
2022-07-29T09:17:53.241Z,5362.00
2022-07-29T09:18:53.549Z,5610.00
2022-07-29T09:19:54.740Z,5542.00
2022-07-29T09:20:54.049Z,5320.00
2022-07-29T09:21:54.303Z,6980.00
2022-07-29T09:22:54.581Z,5512.00
2022-07-29T09:23:54.809Z,5800.00
2022-07-29T09:24:55.097Z,6192.00
2022-07-29T09:25:55.370Z,6293.00
2022-07-29T09:26:56.066Z,2000.00
2022-07-29T09:27:55.950Z,6536.00
2022-07-29T09:28:56.250Z,6758.00
2022-07-29T09:29:56.529Z,6980.00
2022-07-29T09:30:56.771Z,6984.00
2022-07-29T09:31:57.254Z,6938.00
2022-07-29T09:32:57.369Z,7144.00
2022-07-29T09:33:57.675Z,8097.00
2022-07-29T09:34:58.515Z,6512.00
2022-07-29T09:35:58.315Z,7353.00
2022-07-29T09:36:58.918Z,6529.00
2022-07-29T09:37:58.863Z,4837.00
2022-07-29T09:38:59.117Z,4359.00
2022-07-29T09:39:59.386Z,7003.00
2022-07-29T09:40:59.837Z,6639.00
2022-07-29T09:42:00.924Z,5766.00
2022-07-29T09:43:00.228Z,6072.00
2022-07-29T09:44:00.523Z,5961.00
2022-07-29T09:45:00.800Z,6370.00
2022-07-29T09:46:01.156Z,5962.00
2022-07-29T09:47:01.370Z,6530.00
2022-07-29T09:48:01.732Z,7241.00
2022-07-29T09:49:01.979Z,6162.00
2022-07-29T09:50:02.208Z,7690.00
2022-07-29T09:51:02.579Z,6848.00
2022-07-29T09:52:02.876Z,9647.00
2022-07-29T09:53:03.129Z,1893.00
2022-07-29T09:54:03.342Z,7704.00
2022-07-29T09:55:03.579Z,4781.00
2022-07-29T09:56:03.866Z,4171.00
2022-07-29T09:57:04.369Z,5091.00
2022-07-29T09:58:04.421Z,4052.00
2022-07-29T09:59:04.757Z,6798.00
2022-07-29T10:00:05.127Z,4418.00
2022-07-29T10:01:05.312Z,7251.00
2022-07-29T10:02:05.574Z,7193.00
2022-07-29T10:03:05.883Z,7288.00
2022-07-29T10:04:06.244Z,6817.00
2022-07-29T10:05:06.400Z,6856.00
2022-07-29T10:06:06.732Z,5426.00
2022-07-29T10:07:06.972Z,4428.00
2022-07-29T10:08:07.264Z,4002.00
2022-07-29T10:09:07.542Z,4213.00
2022-07-29T10:10:07.791Z,4087.00
2022-07-29T10:11:08.075Z,4110.00
2022-07-29T10:12:08.322Z,4410.00
2022-07-29T10:13:12.216Z,4519.00
2022-07-29T10:14:09.872Z,9873.00
2022-07-29T10:15:09.190Z,9078.00
2022-07-29T10:16:09.531Z,8476.00
2022-07-29T10:17:09.758Z,9498.00
2022-07-29T10:18:10.144Z,9226.00
2022-07-29T10:19:10.320Z,9724.00
2022-07-29T10:20:14.816Z,9223.00
2022-07-29T10:21:35.074Z,8504.00
2022-07-29T10:22:12.208Z,7978.00
2022-07-29T10:23:11.475Z,7967.00
2022-07-29T10:24:14.696Z,8263.00
2022-07-29T10:25:12.063Z,16879.00
2022-07-29T10:26:12.310Z,9480.00
2022-07-29T10:27:12.578Z,11007.00
2022-07-29T10:28:16.276Z,15624.00
2022-07-29T10:29:13.146Z,5762.00
2022-07-29T10:30:13.427Z,4875.00
2022-07-29T10:31:13.803Z,5065.00
2022-07-29T10:32:14.033Z,5542.00
2022-07-29T10:33:14.267Z,9517.00
2022-07-29T10:34:14.550Z,4840.00
2022-07-29T10:35:14.850Z,4554.00
2022-07-29T10:36:15.073Z,3854.00
2022-07-29T10:37:15.363Z,3482.00
2022-07-29T10:38:17.293Z,3316.00
2022-07-29T10:39:15.925Z,3275.00
2022-07-29T10:40:16.138Z,3344.00
2022-07-29T10:41:19.380Z,2711.00
2022-07-29T10:42:19.872Z,4247.00
2022-07-29T10:43:16.928Z,3735.00
2022-07-29T10:44:19.108Z,3803.00
2022-07-29T10:45:17.577Z,3987.00
2022-07-29T10:46:17.949Z,5299.00
2022-07-29T10:47:18.221Z,4394.00
2022-07-29T10:48:18.503Z,4127.00
2022-07-29T10:49:18.921Z,4580.00
2022-07-29T10:50:19.264Z,4454.00
2022-07-29T10:51:19.420Z,4349.00
2022-07-29T10:52:19.804Z,3836.00
2022-07-29T10:53:20.036Z,4104.00
2022-07-29T10:54:20.243Z,5274.00
2022-07-29T10:55:20.603Z,7706.00
2022-07-29T10:56:20.832Z,7704.00
2022-07-29T10:57:21.270Z,5565.00
2022-07-29T10:58:21.390Z,13907.00
2022-07-29T10:59:22.787Z,4853.00
2022-07-29T11:00:22.009Z,4962.00
2022-07-29T11:01:37.761Z,5130.00
2022-07-29T11:02:41.531Z,10547.00
2022-07-29T11:03:23.977Z,4595.00
2022-07-29T11:04:23.218Z,4503.00
2022-07-29T11:05:23.590Z,3896.00
2022-07-29T11:06:27.057Z,3554.00
2022-07-29T11:07:24.219Z,17402.00
2022-07-29T11:08:26.332Z,5632.00
2022-07-29T11:09:34.863Z,14809.00
2022-07-29T11:10:26.988Z,4265.00
2022-07-29T11:11:29.870Z,20462.00
2022-07-29T11:12:25.615Z,4232.00
2022-07-29T11:13:25.828Z,16764.00
2022-07-29T11:14:26.380Z,18757.00
2022-07-29T11:15:28.574Z,17234.00
2022-07-29T11:16:27.700Z,19577.00
2022-07-29T11:17:26.968Z,16820.00
2022-07-29T11:18:27.283Z,16258.00
2022-07-29T11:19:30.653Z,18738.00
2022-07-29T11:20:27.765Z,5304.00
2022-07-29T11:21:28.003Z,6840.00
2022-07-29T11:22:29.272Z,16101.00
2022-07-29T11:23:33.997Z,10939.00
2022-07-29T11:24:30.385Z,9468.00
2022-07-29T11:25:42.778Z,10191.00
2022-07-29T11:26:30.517Z,12720.00
2022-07-29T11:27:29.692Z,9891.00
2022-07-29T11:28:29.955Z,7327.00
2022-07-29T11:29:30.309Z,11844.00
2022-07-29T11:30:30.581Z,9443.00
2022-07-29T11:31:30.882Z,15113.00
2022-07-29T11:32:31.153Z,16978.00
2022-07-29T11:33:54.500Z,12164.00
2022-07-29T11:34:32.757Z,12316.00
2022-07-29T11:35:38.577Z,20479.00
2022-07-29T11:36:33.380Z,11093.00
2022-07-29T11:37:33.138Z,9923.00
2022-07-29T11:38:33.807Z,10193.00
2022-07-29T11:39:36.460Z,7633.00
2022-07-29T11:40:33.384Z,21712.00
2022-07-29T11:41:33.697Z,24842.00
2022-07-29T11:42:35.275Z,11227.00
2022-07-29T11:43:34.207Z,22116.00
2022-07-29T11:44:34.453Z,19026.00
2022-07-29T11:45:41.606Z,19500.00
2022-07-29T11:46:36.183Z,20031.00
2022-07-29T11:47:38.298Z,19832.00
2022-07-29T11:48:35.734Z,19830.00
2022-07-29T11:49:35.993Z,24774.00
2022-07-29T11:50:36.339Z,8086.00
2022-07-29T11:51:36.562Z,7686.00
2022-07-29T11:52:38.114Z,7141.00
2022-07-29T11:53:38.062Z,6945.00
2022-07-29T11:54:38.852Z,6581.00
2022-07-29T11:55:38.581Z,6620.00
2022-07-29T11:56:38.872Z,7015.00
2022-07-29T11:57:38.239Z,5153.00
2022-07-29T11:58:39.487Z,8449.00
2022-07-29T11:59:38.689Z,6637.00
2022-07-29T12:00:38.965Z,6055.00
2022-07-29T12:01:39.217Z,8095.00
2022-07-29T12:02:40.892Z,7514.00
2022-07-29T12:03:39.827Z,5686.00
2022-07-29T12:04:40.087Z,8041.00
2022-07-29T12:05:48.070Z,7519.00
2022-07-29T12:06:41.636Z,7811.00
2022-07-29T12:07:47.125Z,6356.00
2022-07-29T12:08:41.175Z,7460.00
2022-07-29T12:09:41.708Z,7316.00
2022-07-29T12:10:41.681Z,7581.00
2022-07-29T12:11:41.987Z,7623.00
2022-07-29T12:12:42.390Z,5199.00
2022-07-29T12:13:42.643Z,7137.00
2022-07-29T12:14:43.015Z,7148.00
2022-07-29T12:15:47.063Z,5829.00
2022-07-29T12:16:43.558Z,6176.00
2022-07-29T12:17:43.849Z,5951.00
2022-07-29T12:18:44.237Z,6311.00
2022-07-29T12:19:44.561Z,5626.00
2022-07-29T12:20:44.763Z,5268.00
2022-07-29T12:21:52.391Z,5476.00
2022-07-29T12:22:46.312Z,5850.00
2022-07-29T12:23:45.554Z,5776.00
2022-07-29T12:24:45.957Z,5586.00
2022-07-29T12:25:49.677Z,6018.00
2022-07-29T12:26:46.471Z,6649.00
2022-07-29T12:27:46.792Z,6029.00
2022-07-29T12:28:47.145Z,5861.00
2022-07-29T12:29:48.893Z,6247.00
2022-07-29T12:30:47.667Z,6626.00
2022-07-29T12:31:47.982Z,5747.00
2022-07-29T12:32:48.238Z,5662.00
2022-07-29T12:33:48.618Z,5228.00